Time;durP1;ratioP1;P1;durP2;ratioP2;P2;SDS_P1;SDS_P2;PMS_P1;PMS_P2;Temp;Humidity;BMP_temperature;BMP_pressure;BME280_temperature;BME280_humidity;BME280_pressure;Samples;Min_cycle;Max_cycle;Signal;HPM_P1;HPM_P2
2021/12/20 00:00:56;;;;;;;22.60;16.00;;;4.70;99.90;;;;;;4917480;29;20202;-68
2021/12/20 00:03:22;;;;;;;19.27;14.70;;;4.80;99.90;;;;;;4917492;29;20633;-68
2021/12/20 00:05:47;;;;;;;27.37;18.13;;;4.80;99.90;;;;;;4917124;29;20423;-68
2021/12/20 00:08:13;;;;;;;23.63;15.77;;;4.70;99.90;;;;;;4917353;29;20242;-68
2021/12/20 00:10:39;;;;;;;24.00;17.60;;;4.70;99.90;;;;;;4917069;29;20218;-68
2021/12/20 00:13:05;;;;;;;22.13;15.60;;;4.70;99.90;;;;;;4917532;29;20210;-68
2021/12/20 00:15:31;;;;;;;24.23;17.20;;;4.70;99.90;;;;;;4917038;29;20428;-68
2021/12/20 00:17:57;;;;;;;22.70;16.70;;;4.70;99.90;;;;;;4917167;29;20238;-68
2021/12/20 00:20:22;;;;;;;25.10;16.90;;;4.70;99.90;;;;;;4917061;29;20186;-68
2021/12/20 00:22:48;;;;;;;23.37;17.17;;;4.60;99.90;;;;;;4917270;29;20249;-68
2021/12/20 00:25:14;;;;;;;28.60;16.73;;;4.50;99.90;;;;;;4916826;29;20801;-68
2021/12/20 00:27:40;;;;;;;22.97;17.20;;;4.50;99.90;;;;;;4917026;29;20194;-68
2021/12/20 00:30:08;;;;;;;26.47;17.93;;;4.60;99.90;;;;;;4917014;29;20980;-68
2021/12/20 00:32:34;;;;;;;22.87;17.03;;;4.60;99.90;;;;;;4916857;29;20513;-68
2021/12/20 00:35:00;;;;;;;25.37;18.07;;;4.70;99.90;;;;;;4916783;29;20429;-68
2021/12/20 00:40:20;;;;;;;24.57;16.83;;;4.60;99.90;;;;;;4917105;29;20456;-68
2021/12/20 00:42:50;;;;;;;22.73;16.90;;;4.60;99.90;;;;;;4916823;29;20972;-68
2021/12/20 00:45:16;;;;;;;25.87;18.13;;;4.60;99.90;;;;;;4916428;29;20429;-68
2021/12/20 00:47:42;;;;;;;23.17;16.43;;;4.70;99.90;;;;;;4916458;29;20430;-68
2021/12/20 00:50:10;;;;;;;23.63;17.33;;;4.70;99.90;;;;;;4916582;29;20605;-68
2021/12/20 00:52:36;;;;;;;23.03;15.70;;;4.80;99.90;;;;;;4916554;29;20206;-68
2021/12/20 00:55:02;;;;;;;26.80;16.87;;;4.80;99.90;;;;;;4916303;29;20434;-68
2021/12/20 00:57:27;;;;;;;26.30;17.50;;;4.80;99.90;;;;;;4916362;29;20210;-68
2021/12/20 00:59:53;;;;;;;22.70;16.10;;;4.70;99.90;;;;;;4915911;29;20423;-68
2021/12/20 01:02:18;;;;;;;28.60;19.03;;;4.70;99.90;;;;;;4916314;29;20198;-68
2021/12/20 01:04:44;;;;;;;25.10;17.90;;;4.70;99.90;;;;;;4916368;29;20550;-68
2021/12/20 01:07:10;;;;;;;31.37;18.73;;;4.70;99.90;;;;;;4916127;29;20542;-68
2021/12/20 01:09:36;;;;;;;26.03;17.90;;;4.70;99.90;;;;;;4916279;29;20546;-68
2021/12/20 01:12:05;;;;;;;27.00;16.77;;;4.70;99.90;;;;;;4916063;29;20596;-68
2021/12/20 01:14:33;;;;;;;25.37;18.07;;;4.70;99.90;;;;;;4916205;29;20949;-68
2021/12/20 01:17:05;;;;;;;28.40;18.77;;;4.70;99.90;;;;;;4915780;29;20521;-68
2021/12/20 01:19:31;;;;;;;26.33;18.70;;;4.70;99.90;;;;;;4916091;29;20900;-68
2021/12/20 01:21:57;;;;;;;30.10;18.90;;;4.50;99.90;;;;;;4915987;29;20915;-68
2021/12/20 01:24:22;;;;;;;25.93;19.00;;;4.40;99.90;;;;;;4916036;29;20430;-68
2021/12/20 01:26:48;;;;;;;25.33;16.70;;;4.30;99.90;;;;;;4915648;29;20182;-67
2021/12/20 01:29:13;;;;;;;27.00;18.27;;;4.20;99.90;;;;;;4915869;29;20179;-68
2021/12/20 01:31:39;;;;;;;30.03;18.33;;;4.20;99.90;;;;;;4915892;29;20241;-68
2021/12/20 01:34:04;;;;;;;24.93;17.20;;;4.20;99.90;;;;;;4915866;29;20692;-68
2021/12/20 01:36:31;;;;;;;22.20;16.90;;;4.30;99.90;;;;;;4915514;29;20248;-68
2021/12/20 01:38:56;;;;;;;25.23;17.27;;;4.30;99.90;;;;;;4915914;29;20721;-68
2021/12/20 01:41:22;;;;;;;29.73;17.90;;;4.40;99.90;;;;;;4915714;29;20537;-68
2021/12/20 01:43:47;;;;;;;28.87;18.67;;;4.50;99.90;;;;;;4915819;29;20265;-68
2021/12/20 01:46:13;;;;;;;31.97;18.97;;;4.50;99.90;;;;;;4915232;29;20645;-68
2021/12/20 01:48:40;;;;;;;25.87;17.70;;;4.40;99.90;;;;;;4915825;29;20605;-68
2021/12/20 01:53:35;;;;;;;27.40;18.50;;;4.50;99.90;;;;;;4915873;29;20472;-68
2021/12/20 01:56:00;;;;;;;27.50;17.87;;;4.50;99.90;;;;;;4915279;29;20174;-68
2021/12/20 01:58:28;;;;;;;30.53;19.13;;;4.50;99.90;;;;;;4915652;29;20461;-68
2021/12/20 02:03:39;;;;;;;28.47;17.50;;;4.50;99.90;;;;;;4915919;29;20418;-68
2021/12/20 02:06:11;;;;;;;32.60;19.77;;;4.30;99.90;;;;;;4915472;29;20422;-68
2021/12/20 02:08:38;;;;;;;30.97;20.97;;;4.30;99.90;;;;;;4915688;29;20422;-68
2021/12/20 02:11:09;;;;;;;28.53;18.53;;;4.30;99.90;;;;;;4917161;29;20462;-68
2021/12/20 02:13:35;;;;;;;35.40;20.13;;;4.30;99.90;;;;;;4919404;29;20422;-68
2021/12/20 02:16:01;;;;;;;32.50;19.30;;;4.20;99.90;;;;;;4919019;29;20939;-68
2021/12/20 02:18:28;;;;;;;32.30;19.57;;;4.20;99.90;;;;;;4919489;29;20449;-68
2021/12/20 02:20:54;;;;;;;33.27;19.27;;;4.30;99.90;;;;;;4919356;29;20202;-68
2021/12/20 02:23:20;;;;;;;30.03;19.97;;;4.40;99.90;;;;;;4919269;29;20427;-68
2021/12/20 02:25:46;;;;;;;30.77;18.87;;;4.40;99.90;;;;;;4918875;29;20449;-68
2021/12/20 02:28:15;;;;;;;32.73;18.73;;;4.50;99.90;;;;;;4919119;29;20645;-68
2021/12/20 02:38:42;;;;;;;29.00;20.20;;;4.50;99.90;;;;;;4919297;29;20445;-68
2021/12/20 02:41:11;;;;;;;31.97;19.47;;;4.40;99.90;;;;;;4918783;29;20442;-68
2021/12/20 02:43:41;;;;;;;27.77;17.20;;;4.40;99.90;;;;;;4918838;29;20429;-68
2021/12/20 02:46:42;;;;;;;29.87;18.50;;;4.40;99.90;;;;;;4918517;29;20818;-68
2021/12/20 02:49:14;;;;;;;28.70;18.30;;;4.40;99.90;;;;;;4918842;29;21136;-68
2021/12/20 02:51:41;;;;;;;28.90;18.50;;;4.40;99.90;;;;;;4918725;29;20462;-68
2021/12/20 02:54:08;;;;;;;29.73;19.43;;;4.30;99.90;;;;;;4918722;29;20422;-68
2021/12/20 02:56:34;;;;;;;34.57;20.67;;;4.20;99.90;;;;;;4918272;29;20465;-68
2021/12/20 02:59:00;;;;;;;27.80;18.40;;;4.30;99.90;;;;;;4918562;29;20434;-68
2021/12/20 03:01:26;;;;;;;30.30;18.63;;;4.30;99.90;;;;;;4918565;29;20481;-68
2021/12/20 03:03:54;;;;;;;27.33;16.67;;;4.30;99.90;;;;;;4918672;29;20853;-68
2021/12/20 03:06:29;;;;;;;28.90;18.00;;;4.50;99.90;;;;;;4918225;29;20265;-68
2021/12/20 03:08:57;;;;;;;28.30;17.47;;;4.40;99.90;;;;;;4918665;29;20517;-68
2021/12/20 03:11:25;;;;;;;28.17;18.10;;;4.40;99.90;;;;;;4918286;29;20627;-68
2021/12/20 03:13:55;;;;;;;32.00;18.37;;;4.50;99.90;;;;;;4918432;29;20480;-68
2021/12/20 03:16:21;;;;;;;27.43;17.67;;;4.50;99.90;;;;;;4918038;29;21018;-68
2021/12/20 03:18:47;;;;;;;36.57;20.60;;;4.50;99.90;;;;;;4918386;29;20419;-68
2021/12/20 03:21:12;;;;;;;27.40;17.27;;;4.60;99.90;;;;;;4917704;29;20192;-68
2021/12/20 03:23:38;;;;;;;30.10;18.77;;;4.60;99.90;;;;;;4918251;29;20422;-68
2021/12/20 03:26:04;;;;;;;27.20;16.53;;;4.60;99.90;;;;;;4917822;29;20229;-68
2021/12/20 03:28:30;;;;;;;31.50;17.50;;;4.60;99.90;;;;;;4918297;29;20996;-68
2021/12/20 03:30:55;;;;;;;31.73;18.10;;;4.60;99.90;;;;;;4918092;29;20226;-68
2021/12/20 03:33:21;;;;;;;35.37;19.90;;;4.60;99.90;;;;;;4918104;29;20189;-68
2021/12/20 03:35:46;;;;;;;31.13;19.17;;;4.60;99.90;;;;;;4917702;29;20184;-68
2021/12/20 03:38:12;;;;;;;33.83;21.87;;;4.60;99.90;;;;;;4917951;29;20288;-68
2021/12/20 03:40:37;;;;;;;26.90;17.30;;;4.60;99.90;;;;;;4918094;29;20206;-68
2021/12/20 03:43:05;;;;;;;24.33;16.93;;;4.60;99.90;;;;;;4917818;29;20178;-68
2021/12/20 03:45:31;;;;;;;29.60;18.63;;;4.70;99.90;;;;;;4917596;29;20206;-68
2021/12/20 03:47:56;;;;;;;26.57;16.00;;;4.50;99.90;;;;;;4917846;29;20466;-68
2021/12/20 03:50:24;;;;;;;28.03;16.20;;;4.50;99.90;;;;;;4917658;29;20178;-68
2021/12/20 03:52:49;;;;;;;29.33;19.30;;;4.40;99.90;;;;;;4917856;29;20569;-68
2021/12/20 03:55:15;;;;;;;25.37;16.77;;;4.30;99.90;;;;;;4917352;29;20437;-68
2021/12/20 03:57:41;;;;;;;25.00;18.20;;;4.40;99.90;;;;;;4917474;29;20221;-68
2021/12/20 04:00:10;;;;;;;25.77;16.40;;;4.40;99.90;;;;;;4917666;29;20209;-68
2021/12/20 04:02:41;;;;;;;25.13;16.00;;;4.30;99.90;;;;;;4917482;29;20198;-68
2021/12/20 04:05:07;;;;;;;30.13;17.30;;;4.30;99.90;;;;;;4917244;29;20426;-68
2021/12/20 04:07:32;;;;;;;27.43;16.13;;;4.50;99.90;;;;;;4917448;29;20436;-68
2021/12/20 04:09:58;;;;;;;30.07;17.80;;;4.20;99.90;;;;;;4917277;29;20430;-68
2021/12/20 04:12:23;;;;;;;34.17;19.90;;;4.10;99.90;;;;;;4917230;29;20206;-68
2021/12/20 04:14:49;;;;;;;27.53;17.17;;;4.00;99.90;;;;;;4917314;29;20605;-68
2021/12/20 04:17:15;;;;;;;26.10;16.90;;;3.90;99.90;;;;;;4917539;29;20206;-69
2021/12/20 04:19:40;;;;;;;24.70;16.60;;;3.90;99.90;;;;;;4917219;29;20171;-68
2021/12/20 04:22:06;;;;;;;31.30;17.97;;;3.90;99.90;;;;;;4917171;29;20198;-68
2021/12/20 04:24:32;;;;;;;30.37;18.93;;;4.10;99.90;;;;;;4917060;29;20225;-68
2021/12/20 04:26:57;;;;;;;25.83;16.60;;;4.10;99.90;;;;;;4915516;29;20182;-69
2021/12/20 04:29:23;;;;;;;26.27;15.73;;;4.10;99.90;;;;;;4917043;29;20194;-69
2021/12/20 04:31:49;;;;;;;29.80;17.20;;;4.10;99.90;;;;;;4916988;29;20766;-69
2021/12/20 04:34:15;;;;;;;28.67;16.40;;;4.00;99.90;;;;;;4916191;29;20178;-69
2021/12/20 04:36:41;;;;;;;24.87;16.90;;;4.00;99.90;;;;;;4916512;29;20257;-68
2021/12/20 04:39:11;;;;;;;26.40;17.10;;;4.10;99.90;;;;;;4916883;29;20798;-69
2021/12/20 04:41:37;;;;;;;26.10;15.67;;;4.20;99.90;;;;;;4916782;29;20186;-69
2021/12/20 04:44:03;;;;;;;24.53;16.97;;;4.20;99.90;;;;;;4916785;29;20421;-69
2021/12/20 04:46:28;;;;;;;28.43;15.90;;;4.20;99.90;;;;;;4916507;29;20210;-68
2021/12/20 04:48:54;;;;;;;27.07;16.40;;;4.20;99.90;;;;;;4916707;29;20426;-69
2021/12/20 04:51:19;;;;;;;25.83;16.43;;;4.30;99.90;;;;;;4916572;29;20629;-69
2021/12/20 04:53:45;;;;;;;24.20;16.13;;;4.20;99.90;;;;;;4916579;29;20657;-69
2021/12/20 04:56:10;;;;;;;29.03;18.73;;;4.30;99.90;;;;;;4916145;29;20649;-69
2021/12/20 04:58:36;;;;;;;23.20;16.43;;;4.30;99.90;;;;;;4916664;29;20218;-69
2021/12/20 05:01:02;;;;;;;34.03;19.27;;;4.30;99.90;;;;;;4916463;29;20198;-69
2021/12/20 05:03:27;;;;;;;29.70;17.60;;;4.30;99.90;;;;;;4916503;29;20987;-69
2021/12/20 05:05:53;;;;;;;29.63;17.10;;;4.40;99.90;;;;;;4916112;29;20170;-68
2021/12/20 05:08:19;;;;;;;29.53;17.47;;;4.40;99.90;;;;;;4916348;29;20226;-69
2021/12/20 05:10:45;;;;;;;26.03;18.27;;;4.30;99.90;;;;;;4916050;29;20302;-68
2021/12/20 05:13:12;;;;;;;27.57;18.93;;;4.30;99.90;;;;;;4916346;29;20516;-69
2021/12/20 05:15:39;;;;;;;30.33;17.90;;;4.40;99.90;;;;;;4916030;29;20277;-69
2021/12/20 05:18:07;;;;;;;28.33;18.10;;;4.40;99.90;;;;;;4916183;29;20525;-69
2021/12/20 05:20:33;;;;;;;25.77;16.37;;;4.30;99.90;;;;;;4916141;29;20951;-69
2021/12/20 05:22:59;;;;;;;27.07;17.37;;;4.30;99.90;;;;;;4916214;29;20450;-69
2021/12/20 05:25:25;;;;;;;29.13;17.53;;;4.40;99.90;;;;;;4915821;29;20429;-69
2021/12/20 05:27:51;;;;;;;27.40;16.83;;;4.50;99.90;;;;;;4916077;29;20422;-69
2021/12/20 05:30:17;;;;;;;29.20;17.60;;;4.50;99.90;;;;;;4916119;29;20830;-69
2021/12/20 05:32:43;;;;;;;29.47;15.50;;;4.50;99.90;;;;;;4916125;29;20181;-69
2021/12/20 05:35:11;;;;;;;25.87;17.87;;;4.40;99.90;;;;;;4915712;29;20426;-69
2021/12/20 05:37:36;;;;;;;23.70;15.93;;;4.40;99.90;;;;;;4915894;29;20473;-69
2021/12/20 05:40:04;;;;;;;26.57;15.80;;;4.30;99.90;;;;;;4916101;29;20418;-69
2021/12/20 05:42:30;;;;;;;25.00;15.17;;;4.40;99.90;;;;;;4915920;29;20273;-69
2021/12/20 05:44:55;;;;;;;30.13;18.70;;;4.30;99.90;;;;;;4915619;29;21004;-69
2021/12/20 05:47:22;;;;;;;26.97;16.67;;;4.30;99.90;;;;;;4915787;29;20253;-69
2021/12/20 05:49:49;;;;;;;27.90;16.60;;;4.30;99.90;;;;;;4915801;29;20182;-68
2021/12/20 05:52:14;;;;;;;26.70;15.80;;;4.40;99.90;;;;;;4915803;29;20454;-69
2021/12/20 05:54:40;;;;;;;27.20;17.47;;;4.40;99.90;;;;;;4915782;29;20430;-69
2021/12/20 05:57:06;;;;;;;24.10;15.30;;;4.40;99.90;;;;;;4915455;29;20337;-68
2021/12/20 05:59:32;;;;;;;22.23;13.73;;;4.40;99.90;;;;;;4915864;29;20174;-68
2021/12/20 06:01:57;;;;;;;27.23;16.63;;;4.50;99.90;;;;;;4915691;29;20200;-69
2021/12/20 06:04:23;;;;;;;25.20;15.93;;;4.40;99.90;;;;;;4915710;29;20454;-69
2021/12/20 06:06:48;;;;;;;22.10;15.60;;;4.50;99.90;;;;;;4915411;29;20213;-68
2021/12/20 06:09:15;;;;;;;27.90;16.37;;;4.50;99.90;;;;;;4915651;29;20621;-69
2021/12/20 06:11:40;;;;;;;22.43;16.03;;;4.40;99.90;;;;;;4915425;29;20208;-69
2021/12/20 06:14:06;;;;;;;29.83;17.53;;;4.50;99.90;;;;;;4915685;29;20469;-68
2021/12/20 06:16:32;;;;;;;34.70;21.27;;;4.60;99.90;;;;;;4915323;29;20306;-68
2021/12/20 06:18:57;;;;;;;35.47;21.70;;;4.50;99.90;;;;;;4915527;29;20178;-69
2021/12/20 06:21:23;;;;;;;34.33;22.37;;;4.50;99.90;;;;;;4914241;29;20217;-69
2021/12/20 06:23:49;;;;;;;29.30;18.93;;;4.50;99.90;;;;;;4915608;29;20213;-69
2021/12/20 06:26:15;;;;;;;30.17;19.97;;;4.50;99.90;;;;;;4915254;29;20912;-69
2021/12/20 06:28:41;;;;;;;30.23;18.97;;;4.50;99.90;;;;;;4915765;29;20565;-69
2021/12/20 06:31:06;;;;;;;28.80;17.73;;;4.30;99.90;;;;;;4915448;29;20209;-69
2021/12/20 06:33:32;;;;;;;24.80;15.63;;;4.30;99.90;;;;;;4915890;29;20422;-69
2021/12/20 06:35:57;;;;;;;26.77;17.80;;;4.20;99.90;;;;;;4915434;29;20257;-69
2021/12/20 06:38:23;;;;;;;26.37;16.83;;;4.20;99.90;;;;;;4915332;29;20206;-69
2021/12/20 06:40:51;;;;;;;22.97;15.40;;;4.30;99.90;;;;;;4915327;29;20230;-69
2021/12/20 06:43:17;;;;;;;25.47;17.13;;;4.30;99.90;;;;;;4915371;29;20180;-69
2021/12/20 06:45:43;;;;;;;29.80;17.50;;;4.30;99.90;;;;;;4915083;29;20418;-69
2021/12/20 06:48:08;;;;;;;28.63;16.57;;;4.40;99.90;;;;;;4915298;29;20958;-69
2021/12/20 06:50:34;;;;;;;28.30;18.10;;;4.40;99.90;;;;;;4915228;29;20181;-69
2021/12/20 06:53:00;;;;;;;25.40;17.70;;;4.40;99.90;;;;;;4915662;29;20261;-68
2021/12/20 06:55:26;;;;;;;26.10;16.80;;;4.50;99.90;;;;;;4914912;29;20176;-69
2021/12/20 06:57:52;;;;;;;29.40;16.90;;;4.30;99.90;;;;;;4917813;29;20513;-69
2021/12/20 07:00:18;;;;;;;22.23;14.97;;;4.30;99.90;;;;;;4918553;29;20465;-69
2021/12/20 07:02:43;;;;;;;25.73;16.50;;;4.40;99.90;;;;;;4918524;29;20458;-69
2021/12/20 07:05:10;;;;;;;24.20;16.30;;;4.50;99.90;;;;;;4918318;29;20521;-69
2021/12/20 07:07:35;;;;;;;25.10;16.50;;;4.40;99.90;;;;;;4918363;29;20654;-69
2021/12/20 07:10:03;;;;;;;21.43;13.70;;;4.50;99.90;;;;;;4918408;29;20469;-69
2021/12/20 07:12:29;;;;;;;21.13;14.50;;;4.50;99.90;;;;;;4918418;29;20577;-69
2021/12/20 07:14:55;;;;;;;28.20;15.70;;;4.50;99.90;;;;;;4918294;29;20429;-69
2021/12/20 07:17:21;;;;;;;21.50;16.70;;;4.50;99.90;;;;;;4917961;29;20492;-69
2021/12/20 07:19:46;;;;;;;26.53;15.60;;;4.60;99.90;;;;;;4918244;29;20178;-69
2021/12/20 07:22:13;;;;;;;22.47;16.10;;;4.60;99.90;;;;;;4918109;29;20287;-69
2021/12/20 07:24:38;;;;;;;28.03;17.87;;;4.70;99.90;;;;;;4918229;29;20414;-69
2021/12/20 07:27:05;;;;;;;28.20;18.60;;;4.70;99.90;;;;;;4920195;29;20449;-69
2021/12/20 07:29:31;;;;;;;27.83;18.20;;;4.80;99.90;;;;;;4923319;29;20185;-69
2021/12/20 07:31:56;;;;;;;37.07;19.60;;;4.80;99.90;;;;;;4927540;29;20829;-68
2021/12/20 07:34:22;;;;;;;31.27;18.67;;;4.80;99.90;;;;;;4927177;29;20182;-69
2021/12/20 07:36:47;;;;;;;39.17;21.63;;;4.80;99.90;;;;;;4920640;29;20233;-65
2021/12/20 07:39:13;;;;;;;42.30;20.90;;;4.80;99.90;;;;;;4918956;29;20177;-64
2021/12/20 07:41:40;;;;;;;39.43;20.97;;;4.80;99.90;;;;;;4922427;29;20443;-65
2021/12/20 07:44:06;;;;;;;32.73;19.30;;;4.70;99.90;;;;;;4936732;29;20217;-65
2021/12/20 07:46:32;;;;;;;31.20;19.13;;;4.80;99.90;;;;;;4933263;29;20936;-66
2021/12/20 07:48:58;;;;;;;35.50;19.50;;;4.80;99.90;;;;;;4930054;29;20189;-65
2021/12/20 07:51:24;;;;;;;34.37;17.97;;;4.80;99.90;;;;;;4936116;29;20196;-65
2021/12/20 07:53:49;;;;;;;39.03;19.80;;;4.70;99.90;;;;;;4936767;29;20409;-65
2021/12/20 07:56:17;;;;;;;27.20;17.00;;;4.70;99.90;;;;;;4939547;29;20177;-69
2021/12/20 07:58:43;;;;;;;27.80;17.27;;;4.70;99.90;;;;;;4949430;28;20185;-69
2021/12/20 08:01:10;;;;;;;33.13;16.80;;;4.60;99.90;;;;;;4936284;29;20453;-69
2021/12/20 08:03:37;;;;;;;26.27;17.23;;;4.70;99.90;;;;;;4936432;29;20261;-68
2021/12/20 08:06:03;;;;;;;29.37;17.20;;;4.80;99.90;;;;;;4936170;29;20417;-69
2021/12/20 08:08:29;;;;;;;26.97;16.90;;;4.60;99.90;;;;;;4936335;29;20508;-69
2021/12/20 08:10:55;;;;;;;29.57;18.10;;;4.70;99.90;;;;;;4936120;29;20557;-69
2021/12/20 08:13:21;;;;;;;29.50;18.27;;;4.70;99.90;;;;;;4936337;29;20632;-69
2021/12/20 08:15:47;;;;;;;30.67;18.43;;;4.70;99.90;;;;;;4935874;29;20481;-69
2021/12/20 08:18:13;;;;;;;27.83;17.93;;;4.70;99.90;;;;;;4936032;29;20206;-69
2021/12/20 08:20:39;;;;;;;28.17;18.93;;;4.80;99.90;;;;;;4936049;29;20194;-68
2021/12/20 08:23:04;;;;;;;26.47;16.13;;;4.70;99.90;;;;;;4936031;29;20429;-69
2021/12/20 08:25:30;;;;;;;24.97;18.17;;;4.80;99.90;;;;;;4935447;29;20413;-68
2021/12/20 08:27:56;;;;;;;25.73;17.63;;;4.90;99.90;;;;;;4935522;29;20268;-68
2021/12/20 08:30:22;;;;;;;28.13;18.27;;;5.00;99.90;;;;;;4935662;29;20794;-68
2021/12/20 08:32:48;;;;;;;21.50;15.20;;;5.10;99.90;;;;;;4935958;29;20428;-68
2021/12/20 08:35:15;;;;;;;27.77;19.33;;;5.10;99.90;;;;;;4935481;29;20173;-69
2021/12/20 08:37:41;;;;;;;35.63;21.37;;;5.10;99.90;;;;;;4935775;29;20501;-68
2021/12/20 08:40:10;;;;;;;26.27;18.83;;;4.90;99.90;;;;;;4935661;29;20433;-69
2021/12/20 08:42:36;;;;;;;33.00;18.77;;;4.90;99.90;;;;;;4935411;29;21066;-69
2021/12/20 08:45:03;;;;;;;32.00;20.03;;;5.00;99.90;;;;;;4935463;29;20452;-69
2021/12/20 08:47:32;;;;;;;26.53;18.27;;;5.00;99.90;;;;;;4935602;29;20602;-68
2021/12/20 08:50:02;;;;;;;28.37;17.20;;;5.20;99.90;;;;;;4935697;29;20429;-69
2021/12/20 08:52:28;;;;;;;31.27;19.20;;;5.30;99.90;;;;;;4935650;29;20822;-68
2021/12/20 08:54:54;;;;;;;29.97;19.40;;;5.30;99.90;;;;;;4929378;29;20449;-69
2021/12/20 08:57:20;;;;;;;29.57;17.73;;;5.20;99.90;;;;;;4932538;29;20217;-69
2021/12/20 08:59:45;;;;;;;28.97;17.30;;;5.30;99.90;;;;;;4946425;29;20425;-69
2021/12/20 09:02:11;;;;;;;24.60;17.03;;;5.30;99.90;;;;;;4933275;29;20197;-69
2021/12/20 09:04:38;;;;;;;25.80;17.27;;;5.40;99.90;;;;;;4932583;29;20539;-69
2021/12/20 09:07:05;;;;;;;25.70;17.03;;;5.50;99.90;;;;;;4931998;29;20433;-68
2021/12/20 09:09:37;;;;;;;29.17;18.63;;;5.60;99.90;;;;;;4932035;29;20921;-68
2021/12/20 09:12:04;;;;;;;29.80;18.90;;;5.70;99.90;;;;;;4931882;29;20464;-68
2021/12/20 09:14:29;;;;;;;27.43;17.57;;;5.70;99.90;;;;;;4941882;28;20467;-68
2021/12/20 09:16:55;;;;;;;27.73;17.87;;;5.70;99.90;;;;;;4950725;29;21009;-68
2021/12/20 09:19:20;;;;;;;30.10;18.50;;;5.60;99.90;;;;;;4950615;28;20555;-68
2021/12/20 09:21:48;;;;;;;25.93;17.00;;;5.60;99.90;;;;;;4950867;28;20292;-69
2021/12/20 09:24:14;;;;;;;28.03;17.87;;;5.70;99.90;;;;;;4950965;28;20180;-69
2021/12/20 09:26:40;;;;;;;29.40;17.77;;;5.70;99.90;;;;;;4950663;29;20919;-68
2021/12/20 09:29:05;;;;;;;27.10;19.00;;;5.50;99.90;;;;;;4950969;29;20187;-68
2021/12/20 09:31:31;;;;;;;31.07;19.80;;;5.50;99.90;;;;;;4950897;28;20196;-68
2021/12/20 09:33:58;;;;;;;25.80;18.30;;;5.50;99.90;;;;;;4950794;28;20188;-68
2021/12/20 09:36:29;;;;;;;30.53;19.97;;;5.70;99.90;;;;;;4950730;28;20493;-68
2021/12/20 09:38:59;;;;;;;31.53;18.43;;;5.70;99.90;;;;;;4943977;28;20467;-69
2021/12/20 09:44:01;;;;;;;27.40;17.60;;;5.70;99.90;;;;;;4950778;28;20432;-69
2021/12/20 09:46:28;;;;;;;27.23;18.43;;;5.90;99.90;;;;;;4950551;28;20433;-69
2021/12/20 09:48:54;;;;;;;26.97;19.33;;;5.90;99.90;;;;;;4948035;29;20436;-68
2021/12/20 09:51:20;;;;;;;30.33;19.50;;;5.90;99.90;;;;;;4931308;29;20440;-69
2021/12/20 09:53:46;;;;;;;24.63;16.70;;;6.00;99.90;;;;;;4931457;29;20178;-68
2021/12/20 09:56:12;;;;;;;32.87;21.73;;;5.90;99.90;;;;;;4931173;29;20184;-68
2021/12/20 09:58:39;;;;;;;29.83;19.77;;;5.90;99.90;;;;;;4931251;29;20205;-68
2021/12/20 10:01:07;;;;;;;32.50;20.97;;;5.90;99.90;;;;;;4931421;29;20445;-68
2021/12/20 10:03:34;;;;;;;29.03;18.87;;;6.00;99.90;;;;;;4931885;29;20784;-68
2021/12/20 10:06:00;;;;;;;27.63;19.10;;;6.10;99.90;;;;;;4931496;29;20512;-69
2021/12/20 10:08:32;;;;;;;29.43;18.40;;;6.20;99.90;;;;;;4931459;29;20429;-69
2021/12/20 10:11:06;;;;;;;28.57;17.97;;;6.20;99.90;;;;;;4931474;29;20567;-68
2021/12/20 10:13:34;;;;;;;32.23;18.30;;;6.20;99.90;;;;;;4931189;29;20893;-68
2021/12/20 10:16:02;;;;;;;32.33;19.63;;;6.10;99.90;;;;;;4931375;29;20480;-68
2021/12/20 10:18:32;;;;;;;29.17;18.73;;;6.00;99.90;;;;;;4931706;29;20520;-68
2021/12/20 10:21:00;;;;;;;28.90;19.57;;;6.00;99.90;;;;;;4931531;29;20429;-68
2021/12/20 10:23:28;;;;;;;32.70;19.87;;;5.90;99.90;;;;;;4931520;29;20425;-68
2021/12/20 10:25:56;;;;;;;27.07;19.50;;;6.00;99.90;;;;;;4931043;29;20457;-67
2021/12/20 10:28:25;;;;;;;30.43;19.10;;;6.10;99.90;;;;;;4930984;29;20457;-68
2021/12/20 10:30:57;;;;;;;33.33;20.30;;;6.40;99.90;;;;;;4931407;29;20450;-68
2021/12/20 10:33:24;;;;;;;29.50;19.37;;;6.70;99.90;;;;;;4934802;29;20436;-68
2021/12/20 10:35:52;;;;;;;29.33;18.57;;;6.90;99.90;;;;;;4934795;29;20820;-68
2021/12/20 10:38:18;;;;;;;28.90;19.93;;;7.20;99.90;;;;;;4934538;29;20476;-68
2021/12/20 10:40:54;;;;;;;25.63;18.10;;;7.60;99.90;;;;;;4934740;29;20436;-67
2021/12/20 10:43:36;;;;;;;26.07;15.77;;;8.10;99.90;;;;;;4934872;29;20170;-68
2021/12/20 10:46:11;;;;;;;21.27;14.87;;;8.30;99.90;;;;;;4934633;29;20982;-68
2021/12/20 10:48:36;;;;;;;14.60;10.80;;;8.60;99.90;;;;;;4934540;29;20495;-68
2021/12/20 10:51:02;;;;;;;13.30;9.70;;;9.20;99.90;;;;;;4953634;28;20472;-68
2021/12/20 10:53:28;;;;;;;11.33;8.53;;;11.30;99.90;;;;;;4953675;29;20670;-68
2021/12/20 10:55:55;;;;;;;10.77;9.63;;;13.30;99.90;;;;;;4947432;28;20268;-68
2021/12/20 10:58:34;;;;;;;13.00;9.67;;;13.40;99.90;;;;;;4935379;29;20205;-68
2021/12/20 11:04:03;;;;;;;15.47;11.67;;;12.20;99.90;;;;;;4937652;29;20785;-68
2021/12/20 11:09:35;;;;;;;16.23;12.40;;;11.10;99.90;;;;;;4935081;29;20476;-67
2021/12/20 11:12:13;;;;;;;15.53;11.57;;;10.10;99.90;;;;;;4936290;29;20508;-67
2021/12/20 11:14:38;;;;;;;16.37;11.70;;;9.50;99.90;;;;;;4936317;29;20433;-67
2021/12/20 11:17:06;;;;;;;24.43;18.93;;;9.20;99.90;;;;;;4936854;29;20467;-67
2021/12/20 11:19:37;;;;;;;14.40;10.67;;;8.70;99.90;;;;;;4936958;29;20178;-67
2021/12/20 11:22:11;;;;;;;16.27;11.00;;;8.20;99.90;;;;;;4936961;29;20617;-67
2021/12/20 11:24:44;;;;;;;13.13;9.60;;;7.80;99.90;;;;;;4935069;29;20460;-65
2021/12/20 11:27:19;;;;;;;13.33;9.57;;;7.40;99.90;;;;;;4936806;29;20426;-67
2021/12/20 11:29:47;;;;;;;15.80;9.30;;;7.30;99.90;;;;;;4936702;29;20459;-67
2021/12/20 11:32:14;;;;;;;16.33;10.73;;;7.10;99.90;;;;;;4936909;29;20808;-68
2021/12/20 11:34:42;;;;;;;14.13;10.93;;;7.00;99.90;;;;;;4936899;29;20504;-67
2021/12/20 11:37:12;;;;;;;13.07;9.53;;;6.80;99.90;;;;;;4936573;29;20461;-66
2021/12/20 11:39:39;;;;;;;18.13;10.83;;;6.70;99.90;;;;;;4949857;29;20424;-66
2021/12/20 11:42:06;;;;;;;13.87;9.33;;;6.70;99.90;;;;;;4955351;28;20440;-67
2021/12/20 11:44:32;;;;;;;15.53;12.00;;;6.60;99.90;;;;;;4948985;28;20577;-68
2021/12/20 11:47:09;;;;;;;16.13;11.30;;;6.50;99.90;;;;;;4936702;29;20867;-67
2021/12/20 11:49:36;;;;;;;19.47;12.17;;;6.70;99.90;;;;;;4936516;29;20417;-68
2021/12/20 11:52:17;;;;;;;17.23;11.47;;;8.70;99.90;;;;;;4936509;29;20524;-68
2021/12/20 11:54:42;;;;;;;17.53;11.30;;;12.50;99.90;;;;;;4936616;29;20915;-68
2021/12/20 11:57:30;;;;;;;13.27;11.90;;;16.40;98.80;;;;;;4936175;29;20457;-68
2021/12/20 11:59:59;;;;;;;13.67;11.30;;;19.30;87.40;;;;;;4936190;29;20264;-68
2021/12/20 12:02:28;;;;;;;11.60;10.40;;;19.30;79.80;;;;;;4936376;29;20943;-65
2021/12/20 12:04:59;;;;;;;12.23;9.40;;;19.70;74.80;;;;;;4935973;29;20418;-65
2021/12/20 12:07:28;;;;;;;10.13;9.13;;;21.50;69.60;;;;;;4936049;29;20504;-65
2021/12/20 12:10:00;;;;;;;9.40;8.53;;;22.70;61.50;;;;;;4936174;29;20417;-67
2021/12/20 12:12:27;;;;;;;11.47;9.60;;;23.60;57.80;;;;;;4936239;29;20998;-68
2021/12/20 12:15:09;;;;;;;9.30;8.40;;;24.80;54.30;;;;;;4936114;29;20432;-68
2021/12/20 12:17:56;;;;;;;11.20;8.20;;;23.40;51.90;;;;;;4936183;29;20445;-68
2021/12/20 12:20:53;;;;;;;9.57;8.57;;;19.90;56.20;;;;;;4935912;29;20452;-68
2021/12/20 12:23:26;;;;;;;11.87;9.00;;;17.20;60.80;;;;;;4936087;29;20421;-67
2021/12/20 12:25:56;;;;;;;13.23;9.80;;;14.90;66.50;;;;;;4935651;29;20414;-67
2021/12/20 12:28:24;;;;;;;10.93;8.23;;;13.00;75.90;;;;;;4935572;29;20517;-67
2021/12/20 12:31:07;;;;;;;14.40;10.47;;;11.30;86.40;;;;;;4935767;29;20437;-67
2021/12/20 12:33:41;;;;;;;14.60;9.97;;;9.80;94.30;;;;;;4935753;29;20417;-67
2021/12/20 12:36:23;;;;;;;14.20;10.17;;;8.70;99.90;;;;;;4935457;29;20508;-67
2021/12/20 12:38:53;;;;;;;15.63;12.03;;;8.30;99.90;;;;;;4935568;29;20438;-67
2021/12/20 12:41:25;;;;;;;18.17;12.70;;;8.00;99.90;;;;;;4935515;29;20508;-67
2021/12/20 12:44:06;;;;;;;20.20;13.57;;;7.70;99.90;;;;;;4935486;29;20413;-67
2021/12/20 12:46:41;;;;;;;17.30;13.10;;;7.60;99.90;;;;;;4935314;29;21036;-67
2021/12/20 12:49:19;;;;;;;17.43;12.10;;;7.50;99.90;;;;;;4935342;29;20805;-67
2021/12/20 12:51:45;;;;;;;17.90;13.27;;;7.50;99.90;;;;;;4935308;29;20437;-67
2021/12/20 12:54:30;;;;;;;19.77;13.83;;;7.40;99.90;;;;;;4934838;29;20444;-67
2021/12/20 12:57:16;;;;;;;21.83;13.83;;;7.30;99.90;;;;;;4935005;29;20515;-67
2021/12/20 12:59:47;;;;;;;20.90;12.97;;;7.20;99.90;;;;;;4934850;29;20425;-67
2021/12/20 13:02:19;;;;;;;20.00;13.60;;;7.10;99.90;;;;;;4929349;29;20497;-67